Terminal Aerodrome Forecast
Issued by NWS

Home | Current Version | Previous Version | Text Only | Print | Product List | Glossary On
Versions: 1 2 3 4 5 6 7 8 9 10 11 12 13 14 15 16 17
000
FTUS46 KMFR 120712 AAA
TAFRBG
TAF AMD
KRBG 120712Z 1207/1306 VRB03KT P6SM BKN060
     FM121600 VRB03KT P6SM -RA SCT025 OVC040
     FM122100 VRB03KT P6SM -SHRA BKN025 OVC035
     FM130400 VRB03KT 4SM BR OVC020=

USA.gov is the U.S. government's official web portal to all federal, state and local government web resources and services.